sensor_id;sensor_type;location;lat;lon;timestamp;P1;durP1;ratioP1;P2;durP2;ratioP2
74415;SDS011;62850;42.428;25.618;2022-10-16T00:01:45;8.02;;;5.20;;
74415;SDS011;62850;42.428;25.618;2022-10-16T00:04:11;9.60;;;4.63;;
74415;SDS011;62850;42.428;25.618;2022-10-16T00:06:37;9.00;;;5.28;;
74415;SDS011;62850;42.428;25.618;2022-10-16T00:09:03;10.82;;;5.47;;
74415;SDS011;62850;42.428;25.618;2022-10-16T00:11:30;7.93;;;4.80;;
74415;SDS011;62850;42.428;25.618;2022-10-16T00:14:02;8.32;;;5.35;;
74415;SDS011;62850;42.428;25.618;2022-10-16T00:16:30;7.95;;;5.40;;
74415;SDS011;62850;42.428;25.618;2022-10-16T00:18:56;10.30;;;5.40;;
74415;SDS011;62850;42.428;25.618;2022-10-16T00:21:23;9.27;;;4.72;;
74415;SDS011;62850;42.428;25.618;2022-10-16T00:23:58;10.18;;;5.35;;
74415;SDS011;62850;42.428;25.618;2022-10-16T00:26:25;7.72;;;4.95;;
74415;SDS011;62850;42.428;25.618;2022-10-16T00:28:52;9.40;;;5.22;;
74415;SDS011;62850;42.428;25.618;2022-10-16T00:31:19;8.48;;;4.88;;
74415;SDS011;62850;42.428;25.618;2022-10-16T00:33:46;7.97;;;5.00;;
74415;SDS011;62850;42.428;25.618;2022-10-16T00:36:13;9.98;;;4.70;;
74415;SDS011;62850;42.428;25.618;2022-10-16T00:38:40;9.30;;;5.32;;
74415;SDS011;62850;42.428;25.618;2022-10-16T00:41:06;11.88;;;4.68;;
74415;SDS011;62850;42.428;25.618;2022-10-16T00:43:54;10.57;;;4.78;;
74415;SDS011;62850;42.428;25.618;2022-10-16T00:49:11;11.18;;;4.78;;
74415;SDS011;62850;42.428;25.618;2022-10-16T00:54:17;8.80;;;4.75;;
74415;SDS011;62850;42.428;25.618;2022-10-16T00:56:46;7.85;;;4.57;;
74415;SDS011;62850;42.428;25.618;2022-10-16T00:59:18;9.00;;;4.40;;
74415;SDS011;62850;42.428;25.618;2022-10-16T01:01:47;7.95;;;4.57;;
74415;SDS011;62850;42.428;25.618;2022-10-16T01:04:14;8.20;;;4.60;;
74415;SDS011;62850;42.428;25.618;2022-10-16T01:09:14;10.23;;;4.95;;
74415;SDS011;62850;42.428;25.618;2022-10-16T01:11:52;10.00;;;5.20;;
74415;SDS011;62850;42.428;25.618;2022-10-16T01:14:27;8.80;;;4.38;;
74415;SDS011;62850;42.428;25.618;2022-10-16T01:17:15;8.75;;;4.65;;
74415;SDS011;62850;42.428;25.618;2022-10-16T01:22:37;7.07;;;4.35;;
74415;SDS011;62850;42.428;25.618;2022-10-16T01:25:33;10.82;;;4.38;;
74415;SDS011;62850;42.428;25.618;2022-10-16T01:28:02;9.75;;;4.80;;
74415;SDS011;62850;42.428;25.618;2022-10-16T01:33:04;7.78;;;4.70;;
74415;SDS011;62850;42.428;25.618;2022-10-16T01:35:46;6.88;;;5.03;;
74415;SDS011;62850;42.428;25.618;2022-10-16T01:38:19;9.70;;;4.47;;
74415;SDS011;62850;42.428;25.618;2022-10-16T01:40:51;8.40;;;4.70;;
74415;SDS011;62850;42.428;25.618;2022-10-16T01:43:36;8.73;;;5.00;;
74415;SDS011;62850;42.428;25.618;2022-10-16T01:46:05;12.85;;;4.43;;
74415;SDS011;62850;42.428;25.618;2022-10-16T01:48:33;8.88;;;4.72;;
74415;SDS011;62850;42.428;25.618;2022-10-16T01:51:05;7.65;;;4.32;;
74415;SDS011;62850;42.428;25.618;2022-10-16T01:53:33;8.07;;;4.30;;
74415;SDS011;62850;42.428;25.618;2022-10-16T01:55:59;10.55;;;4.25;;
74415;SDS011;62850;42.428;25.618;2022-10-16T01:58:26;7.45;;;4.10;;
74415;SDS011;62850;42.428;25.618;2022-10-16T02:00:55;8.18;;;4.20;;
74415;SDS011;62850;42.428;25.618;2022-10-16T02:03:22;8.75;;;3.88;;
74415;SDS011;62850;42.428;25.618;2022-10-16T02:08:24;8.13;;;4.40;;
74415;SDS011;62850;42.428;25.618;2022-10-16T02:10:54;7.53;;;4.15;;
74415;SDS011;62850;42.428;25.618;2022-10-16T02:13:24;9.30;;;3.97;;
74415;SDS011;62850;42.428;25.618;2022-10-16T02:15:54;10.73;;;4.40;;
74415;SDS011;62850;42.428;25.618;2022-10-16T02:18:20;12.32;;;4.50;;
74415;SDS011;62850;42.428;25.618;2022-10-16T02:20:51;7.10;;;3.90;;
74415;SDS011;62850;42.428;25.618;2022-10-16T02:23:24;5.82;;;3.65;;
74415;SDS011;62850;42.428;25.618;2022-10-16T02:25:58;6.03;;;3.45;;
74415;SDS011;62850;42.428;25.618;2022-10-16T02:28:30;7.80;;;3.63;;
74415;SDS011;62850;42.428;25.618;2022-10-16T02:31:06;8.73;;;4.20;;
74415;SDS011;62850;42.428;25.618;2022-10-16T02:33:34;9.15;;;4.18;;
74415;SDS011;62850;42.428;25.618;2022-10-16T02:36:03;7.32;;;4.18;;
74415;SDS011;62850;42.428;25.618;2022-10-16T02:38:28;7.32;;;3.90;;
74415;SDS011;62850;42.428;25.618;2022-10-16T02:40:55;9.00;;;4.43;;
74415;SDS011;62850;42.428;25.618;2022-10-16T02:43:21;6.90;;;3.38;;
74415;SDS011;62850;42.428;25.618;2022-10-16T02:45:47;12.25;;;4.28;;
74415;SDS011;62850;42.428;25.618;2022-10-16T02:48:12;7.22;;;3.80;;
74415;SDS011;62850;42.428;25.618;2022-10-16T02:50:38;7.95;;;3.90;;
74415;SDS011;62850;42.428;25.618;2022-10-16T02:53:03;7.93;;;3.78;;
74415;SDS011;62850;42.428;25.618;2022-10-16T02:55:29;6.40;;;3.75;;
74415;SDS011;62850;42.428;25.618;2022-10-16T02:57:54;9.05;;;3.70;;
74415;SDS011;62850;42.428;25.618;2022-10-16T03:00:20;7.57;;;3.95;;
74415;SDS011;62850;42.428;25.618;2022-10-16T03:02:46;7.10;;;3.90;;
74415;SDS011;62850;42.428;25.618;2022-10-16T03:05:12;5.65;;;3.90;;
74415;SDS011;62850;42.428;25.618;2022-10-16T03:07:38;6.25;;;3.28;;
74415;SDS011;62850;42.428;25.618;2022-10-16T03:10:05;11.38;;;3.83;;
74415;SDS011;62850;42.428;25.618;2022-10-16T03:12:31;7.25;;;3.67;;
74415;SDS011;62850;42.428;25.618;2022-10-16T03:14:57;6.38;;;3.85;;
74415;SDS011;62850;42.428;25.618;2022-10-16T03:17:23;7.13;;;3.70;;
74415;SDS011;62850;42.428;25.618;2022-10-16T03:19:48;8.35;;;4.10;;
74415;SDS011;62850;42.428;25.618;2022-10-16T03:22:14;6.38;;;3.38;;
74415;SDS011;62850;42.428;25.618;2022-10-16T03:24:40;5.82;;;3.47;;
74415;SDS011;62850;42.428;25.618;2022-10-16T03:27:05;7.63;;;4.45;;
74415;SDS011;62850;42.428;25.618;2022-10-16T03:29:31;6.55;;;3.80;;
74415;SDS011;62850;42.428;25.618;2022-10-16T03:31:58;6.93;;;3.92;;
74415;SDS011;62850;42.428;25.618;2022-10-16T03:34:24;6.28;;;3.42;;
74415;SDS011;62850;42.428;25.618;2022-10-16T03:36:49;6.63;;;3.55;;
74415;SDS011;62850;42.428;25.618;2022-10-16T03:39:15;7.47;;;3.20;;
74415;SDS011;62850;42.428;25.618;2022-10-16T03:41:40;7.32;;;3.38;;
74415;SDS011;62850;42.428;25.618;2022-10-16T03:44:06;10.43;;;3.63;;
74415;SDS011;62850;42.428;25.618;2022-10-16T03:46:32;7.65;;;3.38;;
74415;SDS011;62850;42.428;25.618;2022-10-16T03:48:57;7.15;;;3.88;;
74415;SDS011;62850;42.428;25.618;2022-10-16T03:51:23;8.30;;;4.35;;
74415;SDS011;62850;42.428;25.618;2022-10-16T03:53:48;8.73;;;3.78;;
74415;SDS011;62850;42.428;25.618;2022-10-16T03:56:14;5.80;;;3.22;;
74415;SDS011;62850;42.428;25.618;2022-10-16T03:58:40;5.68;;;3.28;;
74415;SDS011;62850;42.428;25.618;2022-10-16T04:01:05;7.78;;;3.75;;
74415;SDS011;62850;42.428;25.618;2022-10-16T04:03:31;7.55;;;3.70;;
74415;SDS011;62850;42.428;25.618;2022-10-16T04:05:56;6.60;;;3.75;;
74415;SDS011;62850;42.428;25.618;2022-10-16T04:08:22;5.80;;;3.63;;
74415;SDS011;62850;42.428;25.618;2022-10-16T04:10:47;5.97;;;3.40;;
74415;SDS011;62850;42.428;25.618;2022-10-16T04:13:13;7.30;;;4.20;;
74415;SDS011;62850;42.428;25.618;2022-10-16T04:15:38;7.72;;;3.67;;
74415;SDS011;62850;42.428;25.618;2022-10-16T04:18:04;8.25;;;4.25;;
74415;SDS011;62850;42.428;25.618;2022-10-16T04:20:29;6.68;;;3.72;;
74415;SDS011;62850;42.428;25.618;2022-10-16T04:22:55;6.25;;;3.20;;
74415;SDS011;62850;42.428;25.618;2022-10-16T04:25:21;6.53;;;3.20;;
74415;SDS011;62850;42.428;25.618;2022-10-16T04:27:47;7.43;;;3.65;;
74415;SDS011;62850;42.428;25.618;2022-10-16T04:30:12;6.95;;;3.65;;
74415;SDS011;62850;42.428;25.618;2022-10-16T04:32:38;7.28;;;4.20;;
74415;SDS011;62850;42.428;25.618;2022-10-16T04:35:04;6.97;;;3.90;;
74415;SDS011;62850;42.428;25.618;2022-10-16T04:37:30;6.32;;;3.75;;
74415;SDS011;62850;42.428;25.618;2022-10-16T04:39:55;6.45;;;3.85;;
74415;SDS011;62850;42.428;25.618;2022-10-16T04:42:21;8.80;;;3.65;;
74415;SDS011;62850;42.428;25.618;2022-10-16T04:44:46;6.90;;;3.58;;
74415;SDS011;62850;42.428;25.618;2022-10-16T04:47:12;5.68;;;3.38;;
74415;SDS011;62850;42.428;25.618;2022-10-16T04:49:38;7.82;;;4.28;;
74415;SDS011;62850;42.428;25.618;2022-10-16T04:52:04;7.13;;;3.30;;
74415;SDS011;62850;42.428;25.618;2022-10-16T04:54:29;6.57;;;3.55;;
74415;SDS011;62850;42.428;25.618;2022-10-16T04:56:55;6.47;;;3.50;;
74415;SDS011;62850;42.428;25.618;2022-10-16T04:59:21;7.45;;;3.42;;
74415;SDS011;62850;42.428;25.618;2022-10-16T05:01:47;7.68;;;3.58;;
74415;SDS011;62850;42.428;25.618;2022-10-16T05:04:13;8.48;;;3.85;;
74415;SDS011;62850;42.428;25.618;2022-10-16T05:06:40;6.60;;;3.35;;
74415;SDS011;62850;42.428;25.618;2022-10-16T05:09:05;7.53;;;3.58;;
74415;SDS011;62850;42.428;25.618;2022-10-16T05:11:31;7.47;;;3.47;;
74415;SDS011;62850;42.428;25.618;2022-10-16T05:13:57;9.43;;;3.92;;
74415;SDS011;62850;42.428;25.618;2022-10-16T05:16:23;9.55;;;3.70;;
74415;SDS011;62850;42.428;25.618;2022-10-16T05:18:48;5.32;;;3.22;;
74415;SDS011;62850;42.428;25.618;2022-10-16T05:21:14;6.45;;;3.35;;
74415;SDS011;62850;42.428;25.618;2022-10-16T05:23:39;6.30;;;3.65;;
74415;SDS011;62850;42.428;25.618;2022-10-16T05:26:05;8.13;;;3.85;;
74415;SDS011;62850;42.428;25.618;2022-10-16T05:28:30;6.18;;;3.38;;
74415;SDS011;62850;42.428;25.618;2022-10-16T05:30:56;8.07;;;3.72;;
74415;SDS011;62850;42.428;25.618;2022-10-16T05:33:23;5.75;;;3.33;;
74415;SDS011;62850;42.428;25.618;2022-10-16T05:35:50;6.45;;;4.00;;
74415;SDS011;62850;42.428;25.618;2022-10-16T05:38:17;7.15;;;4.18;;
74415;SDS011;62850;42.428;25.618;2022-10-16T05:40:43;6.60;;;4.03;;
74415;SDS011;62850;42.428;25.618;2022-10-16T05:43:08;10.68;;;4.25;;
74415;SDS011;62850;42.428;25.618;2022-10-16T05:45:34;8.90;;;4.32;;
74415;SDS011;62850;42.428;25.618;2022-10-16T05:48:00;7.80;;;3.83;;
74415;SDS011;62850;42.428;25.618;2022-10-16T05:50:25;9.88;;;4.97;;
74415;SDS011;62850;42.428;25.618;2022-10-16T05:52:51;8.85;;;5.47;;
74415;SDS011;62850;42.428;25.618;2022-10-16T05:55:17;9.50;;;6.15;;
74415;SDS011;62850;42.428;25.618;2022-10-16T05:57:43;13.90;;;6.75;;
74415;SDS011;62850;42.428;25.618;2022-10-16T06:00:08;12.38;;;6.57;;
74415;SDS011;62850;42.428;25.618;2022-10-16T06:02:35;17.35;;;7.07;;
74415;SDS011;62850;42.428;25.618;2022-10-16T06:05:00;13.55;;;7.07;;
74415;SDS011;62850;42.428;25.618;2022-10-16T06:07:26;15.27;;;6.90;;
74415;SDS011;62850;42.428;25.618;2022-10-16T06:09:52;14.80;;;6.88;;
74415;SDS011;62850;42.428;25.618;2022-10-16T06:12:18;13.27;;;6.47;;
74415;SDS011;62850;42.428;25.618;2022-10-16T06:14:44;16.88;;;7.72;;
74415;SDS011;62850;42.428;25.618;2022-10-16T06:17:12;12.55;;;6.97;;
74415;SDS011;62850;42.428;25.618;2022-10-16T06:19:39;22.80;;;9.27;;
74415;SDS011;62850;42.428;25.618;2022-10-16T06:22:04;23.75;;;10.02;;
74415;SDS011;62850;42.428;25.618;2022-10-16T06:24:31;23.88;;;13.18;;
74415;SDS011;62850;42.428;25.618;2022-10-16T06:26:56;57.00;;;22.88;;
74415;SDS011;62850;42.428;25.618;2022-10-16T06:29:22;20.95;;;9.70;;
74415;SDS011;62850;42.428;25.618;2022-10-16T06:31:47;14.57;;;7.50;;
74415;SDS011;62850;42.428;25.618;2022-10-16T06:34:13;22.05;;;8.45;;
74415;SDS011;62850;42.428;25.618;2022-10-16T06:36:39;14.23;;;7.63;;
74415;SDS011;62850;42.428;25.618;2022-10-16T06:39:05;11.13;;;6.55;;
74415;SDS011;62850;42.428;25.618;2022-10-16T06:41:32;18.05;;;7.85;;
74415;SDS011;62850;42.428;25.618;2022-10-16T06:43:58;10.60;;;6.20;;
74415;SDS011;62850;42.428;25.618;2022-10-16T06:46:24;12.73;;;6.43;;
74415;SDS011;62850;42.428;25.618;2022-10-16T06:48:51;11.90;;;6.15;;
74415;SDS011;62850;42.428;25.618;2022-10-16T06:51:18;16.23;;;6.32;;
74415;SDS011;62850;42.428;25.618;2022-10-16T06:53:46;11.52;;;6.07;;
74415;SDS011;62850;42.428;25.618;2022-10-16T06:58:46;12.93;;;6.28;;
74415;SDS011;62850;42.428;25.618;2022-10-16T07:01:13;15.48;;;7.07;;
74415;SDS011;62850;42.428;25.618;2022-10-16T07:03:41;12.05;;;5.82;;
74415;SDS011;62850;42.428;25.618;2022-10-16T07:06:09;14.75;;;6.78;;
74415;SDS011;62850;42.428;25.618;2022-10-16T07:08:36;10.52;;;6.00;;
74415;SDS011;62850;42.428;25.618;2022-10-16T07:11:05;9.45;;;5.50;;
74415;SDS011;62850;42.428;25.618;2022-10-16T07:13:35;10.60;;;5.35;;
74415;SDS011;62850;42.428;25.618;2022-10-16T07:16:08;10.88;;;5.60;;
74415;SDS011;62850;42.428;25.618;2022-10-16T07:18:35;15.75;;;8.13;;
74415;SDS011;62850;42.428;25.618;2022-10-16T07:24:03;16.10;;;7.85;;
74415;SDS011;62850;42.428;25.618;2022-10-16T07:26:31;23.08;;;9.50;;
74415;SDS011;62850;42.428;25.618;2022-10-16T07:28:59;14.73;;;6.68;;
74415;SDS011;62850;42.428;25.618;2022-10-16T07:31:25;16.60;;;7.00;;
74415;SDS011;62850;42.428;25.618;2022-10-16T07:33:52;11.18;;;6.45;;
74415;SDS011;62850;42.428;25.618;2022-10-16T07:36:18;13.73;;;6.85;;
74415;SDS011;62850;42.428;25.618;2022-10-16T07:38:45;12.40;;;6.95;;
74415;SDS011;62850;42.428;25.618;2022-10-16T07:41:12;14.80;;;7.90;;
74415;SDS011;62850;42.428;25.618;2022-10-16T07:43:44;13.52;;;7.88;;
74415;SDS011;62850;42.428;25.618;2022-10-16T07:46:12;12.85;;;7.20;;
74415;SDS011;62850;42.428;25.618;2022-10-16T07:48:38;12.52;;;7.85;;
74415;SDS011;62850;42.428;25.618;2022-10-16T07:51:04;14.98;;;8.25;;
74415;SDS011;62850;42.428;25.618;2022-10-16T07:53:31;13.07;;;7.22;;
74415;SDS011;62850;42.428;25.618;2022-10-16T07:56:02;14.23;;;7.78;;
74415;SDS011;62850;42.428;25.618;2022-10-16T07:58:32;14.52;;;7.90;;
74415;SDS011;62850;42.428;25.618;2022-10-16T08:00:58;14.35;;;7.95;;
74415;SDS011;62850;42.428;25.618;2022-10-16T08:03:24;13.63;;;7.72;;
74415;SDS011;62850;42.428;25.618;2022-10-16T08:05:50;10.98;;;7.40;;
74415;SDS011;62850;42.428;25.618;2022-10-16T08:08:16;14.07;;;7.28;;
74415;SDS011;62850;42.428;25.618;2022-10-16T08:10:43;13.60;;;7.78;;
74415;SDS011;62850;42.428;25.618;2022-10-16T08:13:09;11.88;;;7.15;;
74415;SDS011;62850;42.428;25.618;2022-10-16T08:15:35;13.55;;;7.43;;
74415;SDS011;62850;42.428;25.618;2022-10-16T08:18:01;14.85;;;8.10;;
74415;SDS011;62850;42.428;25.618;2022-10-16T08:20:29;13.27;;;6.90;;
74415;SDS011;62850;42.428;25.618;2022-10-16T08:22:55;12.55;;;6.57;;
74415;SDS011;62850;42.428;25.618;2022-10-16T08:25:21;12.63;;;6.90;;
74415;SDS011;62850;42.428;25.618;2022-10-16T08:27:48;12.98;;;7.20;;
74415;SDS011;62850;42.428;25.618;2022-10-16T08:30:15;13.07;;;8.45;;
74415;SDS011;62850;42.428;25.618;2022-10-16T08:32:41;14.32;;;7.47;;
74415;SDS011;62850;42.428;25.618;2022-10-16T08:35:08;12.27;;;6.43;;
74415;SDS011;62850;42.428;25.618;2022-10-16T08:37:35;12.52;;;7.75;;
74415;SDS011;62850;42.428;25.618;2022-10-16T08:40:01;14.23;;;7.53;;
74415;SDS011;62850;42.428;25.618;2022-10-16T08:48:27;13.57;;;6.90;;
74415;SDS011;62850;42.428;25.618;2022-10-16T08:51:00;10.05;;;6.47;;
74415;SDS011;62850;42.428;25.618;2022-10-16T08:53:31;12.85;;;7.15;;
74415;SDS011;62850;42.428;25.618;2022-10-16T08:56:04;14.02;;;6.50;;
74415;SDS011;62850;42.428;25.618;2022-10-16T08:58:30;10.20;;;6.35;;
74415;SDS011;62850;42.428;25.618;2022-10-16T09:00:57;13.20;;;7.20;;
74415;SDS011;62850;42.428;25.618;2022-10-16T09:23:10;9.10;;;5.13;;
74415;SDS011;62850;42.428;25.618;2022-10-16T09:25:41;11.25;;;5.45;;
74415;SDS011;62850;42.428;25.618;2022-10-16T09:28:09;11.35;;;5.32;;
74415;SDS011;62850;42.428;25.618;2022-10-16T09:30:35;10.35;;;5.28;;
74415;SDS011;62850;42.428;25.618;2022-10-16T09:33:03;8.27;;;4.72;;
74415;SDS011;62850;42.428;25.618;2022-10-16T09:35:37;9.15;;;4.65;;
74415;SDS011;62850;42.428;25.618;2022-10-16T09:38:05;10.18;;;5.10;;
74415;SDS011;62850;42.428;25.618;2022-10-16T09:40:38;7.88;;;4.57;;
74415;SDS011;62850;42.428;25.618;2022-10-16T09:43:16;11.02;;;4.90;;
74415;SDS011;62850;42.428;25.618;2022-10-16T09:48:18;9.07;;;4.53;;
74415;SDS011;62850;42.428;25.618;2022-10-16T09:50:54;8.05;;;4.13;;
74415;SDS011;62850;42.428;25.618;2022-10-16T09:53:21;12.98;;;4.60;;
74415;SDS011;62850;42.428;25.618;2022-10-16T09:55:48;9.07;;;4.40;;
74415;SDS011;62850;42.428;25.618;2022-10-16T09:58:20;7.53;;;4.05;;
74415;SDS011;62850;42.428;25.618;2022-10-16T10:00:49;7.63;;;4.15;;
74415;SDS011;62850;42.428;25.618;2022-10-16T10:03:30;7.43;;;4.28;;
74415;SDS011;62850;42.428;25.618;2022-10-16T10:24:57;9.85;;;3.60;;
74415;SDS011;62850;42.428;25.618;2022-10-16T10:27:37;9.90;;;3.70;;
74415;SDS011;62850;42.428;25.618;2022-10-16T10:36:39;6.95;;;3.20;;
74415;SDS011;62850;42.428;25.618;2022-10-16T10:39:08;7.40;;;3.03;;
74415;SDS011;62850;42.428;25.618;2022-10-16T10:47:41;8.75;;;2.60;;
74415;SDS011;62850;42.428;25.618;2022-10-16T10:50:16;7.97;;;2.80;;
74415;SDS011;62850;42.428;25.618;2022-10-16T11:01:11;4.78;;;2.65;;
74415;SDS011;62850;42.428;25.618;2022-10-16T11:06:26;7.65;;;3.42;;
74415;SDS011;62850;42.428;25.618;2022-10-16T11:09:13;8.88;;;4.13;;
74415;SDS011;62850;42.428;25.618;2022-10-16T11:14:16;7.05;;;4.20;;
74415;SDS011;62850;42.428;25.618;2022-10-16T11:16:52;11.23;;;5.15;;
74415;SDS011;62850;42.428;25.618;2022-10-16T11:27:41;10.23;;;4.68;;
74415;SDS011;62850;42.428;25.618;2022-10-16T11:30:24;8.38;;;4.22;;
74415;SDS011;62850;42.428;25.618;2022-10-16T11:35:42;9.75;;;4.10;;
74415;SDS011;62850;42.428;25.618;2022-10-16T11:38:27;7.88;;;4.10;;
74415;SDS011;62850;42.428;25.618;2022-10-16T11:41:02;6.78;;;4.07;;
74415;SDS011;62850;42.428;25.618;2022-10-16T11:44:09;7.28;;;4.35;;
74415;SDS011;62850;42.428;25.618;2022-10-16T11:46:30;9.40;;;4.20;;
74415;SDS011;62850;42.428;25.618;2022-10-16T11:49:20;9.27;;;4.75;;
74415;SDS011;62850;42.428;25.618;2022-10-16T11:52:11;10.07;;;4.25;;
74415;SDS011;62850;42.428;25.618;2022-10-16T11:57:46;10.90;;;4.40;;
74415;SDS011;62850;42.428;25.618;2022-10-16T12:00:24;7.53;;;4.13;;
74415;SDS011;62850;42.428;25.618;2022-10-16T12:02:58;9.35;;;3.83;;
74415;SDS011;62850;42.428;25.618;2022-10-16T12:05:51;7.05;;;4.05;;
74415;SDS011;62850;42.428;25.618;2022-10-16T12:08:21;7.43;;;3.78;;
74415;SDS011;62850;42.428;25.618;2022-10-16T12:10:47;8.70;;;3.60;;
74415;SDS011;62850;42.428;25.618;2022-10-16T12:16:22;10.57;;;4.00;;
74415;SDS011;62850;42.428;25.618;2022-10-16T12:18:48;7.75;;;3.50;;
74415;SDS011;62850;42.428;25.618;2022-10-16T12:21:15;8.38;;;3.67;;
74415;SDS011;62850;42.428;25.618;2022-10-16T12:23:51;7.32;;;3.55;;
74415;SDS011;62850;42.428;25.618;2022-10-16T12:26:28;6.40;;;3.60;;
74415;SDS011;62850;42.428;25.618;2022-10-16T12:32:03;6.22;;;3.38;;
74415;SDS011;62850;42.428;25.618;2022-10-16T12:34:39;5.00;;;3.20;;
74415;SDS011;62850;42.428;25.618;2022-10-16T12:37:12;6.40;;;3.55;;
74415;SDS011;62850;42.428;25.618;2022-10-16T12:39:38;5.93;;;3.42;;
74415;SDS011;62850;42.428;25.618;2022-10-16T12:42:05;8.43;;;3.40;;
74415;SDS011;62850;42.428;25.618;2022-10-16T12:44:44;7.70;;;3.80;;
74415;SDS011;62850;42.428;25.618;2022-10-16T12:47:23;5.68;;;3.50;;
74415;SDS011;62850;42.428;25.618;2022-10-16T12:50:01;11.45;;;3.78;;
74415;SDS011;62850;42.428;25.618;2022-10-16T12:52:28;7.35;;;3.88;;
74415;SDS011;62850;42.428;25.618;2022-10-16T12:55:03;6.85;;;3.45;;
74415;SDS011;62850;42.428;25.618;2022-10-16T12:57:39;7.50;;;3.75;;
74415;SDS011;62850;42.428;25.618;2022-10-16T13:00:41;6.68;;;3.42;;
74415;SDS011;62850;42.428;25.618;2022-10-16T13:17:18;8.50;;;3.42;;
74415;SDS011;62850;42.428;25.618;2022-10-16T13:22:54;5.50;;;2.63;;
74415;SDS011;62850;42.428;25.618;2022-10-16T13:28:29;7.72;;;2.85;;
74415;SDS011;62850;42.428;25.618;2022-10-16T13:30:58;7.07;;;2.70;;
74415;SDS011;62850;42.428;25.618;2022-10-16T13:35:59;7.15;;;2.50;;
74415;SDS011;62850;42.428;25.618;2022-10-16T13:38:30;7.45;;;3.10;;
74415;SDS011;62850;42.428;25.618;2022-10-16T13:43:27;5.85;;;2.40;;
74415;SDS011;62850;42.428;25.618;2022-10-16T13:45:58;5.60;;;2.47;;
74415;SDS011;62850;42.428;25.618;2022-10-16T13:48:29;5.30;;;2.08;;
74415;SDS011;62850;42.428;25.618;2022-10-16T13:51:28;5.00;;;2.45;;
74415;SDS011;62850;42.428;25.618;2022-10-16T13:53:47;5.82;;;2.60;;
74415;SDS011;62850;42.428;25.618;2022-10-16T13:56:14;5.40;;;2.55;;
74415;SDS011;62850;42.428;25.618;2022-10-16T13:58:42;4.40;;;2.20;;
74415;SDS011;62850;42.428;25.618;2022-10-16T14:01:20;4.53;;;2.58;;
74415;SDS011;62850;42.428;25.618;2022-10-16T14:03:50;5.13;;;2.40;;
74415;SDS011;62850;42.428;25.618;2022-10-16T14:06:17;6.82;;;2.80;;
74415;SDS011;62850;42.428;25.618;2022-10-16T14:08:53;8.05;;;2.60;;
74415;SDS011;62850;42.428;25.618;2022-10-16T14:11:24;9.10;;;2.63;;
74415;SDS011;62850;42.428;25.618;2022-10-16T14:13:50;6.57;;;2.70;;
74415;SDS011;62850;42.428;25.618;2022-10-16T14:16:21;7.13;;;3.00;;
74415;SDS011;62850;42.428;25.618;2022-10-16T14:18:55;5.50;;;2.72;;
74415;SDS011;62850;42.428;25.618;2022-10-16T14:21:23;7.80;;;2.80;;
74415;SDS011;62850;42.428;25.618;2022-10-16T14:23:49;6.57;;;2.55;;
74415;SDS011;62850;42.428;25.618;2022-10-16T14:26:16;4.75;;;2.80;;
74415;SDS011;62850;42.428;25.618;2022-10-16T14:28:44;6.10;;;2.80;;
74415;SDS011;62850;42.428;25.618;2022-10-16T14:33:51;6.28;;;2.80;;
74415;SDS011;62850;42.428;25.618;2022-10-16T14:36:17;6.65;;;2.88;;
74415;SDS011;62850;42.428;25.618;2022-10-16T14:41:30;11.27;;;3.13;;
74415;SDS011;62850;42.428;25.618;2022-10-16T14:44:01;5.57;;;2.55;;
74415;SDS011;62850;42.428;25.618;2022-10-16T14:46:30;6.93;;;3.03;;
74415;SDS011;62850;42.428;25.618;2022-10-16T14:51:34;5.88;;;3.03;;
74415;SDS011;62850;42.428;25.618;2022-10-16T14:54:00;7.78;;;2.78;;
74415;SDS011;62850;42.428;25.618;2022-10-16T14:56:30;5.43;;;2.58;;
74415;SDS011;62850;42.428;25.618;2022-10-16T14:59:10;6.68;;;2.65;;
74415;SDS011;62850;42.428;25.618;2022-10-16T15:01:58;5.15;;;2.90;;
74415;SDS011;62850;42.428;25.618;2022-10-16T15:04:24;10.18;;;2.75;;
74415;SDS011;62850;42.428;25.618;2022-10-16T15:06:49;5.45;;;2.83;;
74415;SDS011;62850;42.428;25.618;2022-10-16T15:09:15;4.20;;;2.80;;
74415;SDS011;62850;42.428;25.618;2022-10-16T15:11:41;6.28;;;2.88;;
74415;SDS011;62850;42.428;25.618;2022-10-16T15:14:13;5.82;;;2.75;;
74415;SDS011;62850;42.428;25.618;2022-10-16T15:16:39;10.55;;;3.08;;
74415;SDS011;62850;42.428;25.618;2022-10-16T15:19:04;7.57;;;3.00;;
74415;SDS011;62850;42.428;25.618;2022-10-16T15:21:30;7.53;;;4.13;;
74415;SDS011;62850;42.428;25.618;2022-10-16T15:23:57;10.10;;;3.00;;
74415;SDS011;62850;42.428;25.618;2022-10-16T15:26:25;4.97;;;3.17;;
74415;SDS011;62850;42.428;25.618;2022-10-16T15:28:52;7.03;;;2.80;;
74415;SDS011;62850;42.428;25.618;2022-10-16T15:31:17;5.50;;;2.83;;
74415;SDS011;62850;42.428;25.618;2022-10-16T15:33:43;7.57;;;3.35;;
74415;SDS011;62850;42.428;25.618;2022-10-16T15:36:09;6.25;;;3.03;;
74415;SDS011;62850;42.428;25.618;2022-10-16T15:38:34;6.55;;;2.97;;
74415;SDS011;62850;42.428;25.618;2022-10-16T15:41:00;6.55;;;3.30;;
74415;SDS011;62850;42.428;25.618;2022-10-16T15:43:26;7.30;;;3.35;;
74415;SDS011;62850;42.428;25.618;2022-10-16T15:46:05;6.68;;;3.17;;
74415;SDS011;62850;42.428;25.618;2022-10-16T15:48:33;7.45;;;3.30;;
74415;SDS011;62850;42.428;25.618;2022-10-16T15:50:59;6.32;;;3.03;;
74415;SDS011;62850;42.428;25.618;2022-10-16T15:53:25;6.63;;;2.72;;
74415;SDS011;62850;42.428;25.618;2022-10-16T15:55:51;7.78;;;3.10;;
74415;SDS011;62850;42.428;25.618;2022-10-16T15:58:17;7.88;;;3.15;;
74415;SDS011;62850;42.428;25.618;2022-10-16T16:00:43;6.25;;;3.00;;
74415;SDS011;62850;42.428;25.618;2022-10-16T16:03:08;5.53;;;3.00;;
74415;SDS011;62850;42.428;25.618;2022-10-16T16:05:37;4.97;;;2.70;;
74415;SDS011;62850;42.428;25.618;2022-10-16T16:08:03;6.03;;;3.10;;
74415;SDS011;62850;42.428;25.618;2022-10-16T16:10:28;6.93;;;3.20;;
74415;SDS011;62850;42.428;25.618;2022-10-16T16:12:54;6.85;;;3.20;;
74415;SDS011;62850;42.428;25.618;2022-10-16T16:15:20;9.13;;;3.30;;
74415;SDS011;62850;42.428;25.618;2022-10-16T16:17:46;7.97;;;3.17;;
74415;SDS011;62850;42.428;25.618;2022-10-16T16:20:12;7.90;;;2.85;;
74415;SDS011;62850;42.428;25.618;2022-10-16T16:22:38;6.97;;;3.05;;
74415;SDS011;62850;42.428;25.618;2022-10-16T16:25:04;6.03;;;3.40;;
74415;SDS011;62850;42.428;25.618;2022-10-16T16:27:29;6.93;;;3.70;;
74415;SDS011;62850;42.428;25.618;2022-10-16T16:29:58;6.65;;;3.40;;
74415;SDS011;62850;42.428;25.618;2022-10-16T16:32:24;9.13;;;3.60;;
74415;SDS011;62850;42.428;25.618;2022-10-16T16:34:50;5.60;;;3.08;;
74415;SDS011;62850;42.428;25.618;2022-10-16T16:37:15;7.47;;;4.50;;
74415;SDS011;62850;42.428;25.618;2022-10-16T16:39:41;5.55;;;3.20;;
74415;SDS011;62850;42.428;25.618;2022-10-16T16:42:06;7.10;;;3.50;;
74415;SDS011;62850;42.428;25.618;2022-10-16T16:44:32;7.88;;;3.90;;
74415;SDS011;62850;42.428;25.618;2022-10-16T16:47:01;7.82;;;3.65;;
74415;SDS011;62850;42.428;25.618;2022-10-16T16:49:26;11.50;;;4.05;;
74415;SDS011;62850;42.428;25.618;2022-10-16T16:51:52;10.70;;;4.30;;
74415;SDS011;62850;42.428;25.618;2022-10-16T16:54:18;10.30;;;4.45;;
74415;SDS011;62850;42.428;25.618;2022-10-16T16:56:44;12.80;;;5.68;;
74415;SDS011;62850;42.428;25.618;2022-10-16T16:59:11;8.52;;;3.90;;
74415;SDS011;62850;42.428;25.618;2022-10-16T17:01:39;5.80;;;3.00;;
74415;SDS011;62850;42.428;25.618;2022-10-16T17:04:05;9.52;;;3.50;;
74415;SDS011;62850;42.428;25.618;2022-10-16T17:06:30;7.10;;;3.38;;
74415;SDS011;62850;42.428;25.618;2022-10-16T17:08:56;8.40;;;3.42;;